Shandon, California
Current Conditions -  °F | °C
As of 3:53 AM on Wednesday 28 Jan 2015 (Local Time) from KPRB Reporting Station
Clear Clear  
Wind Chill: 42°   Ceiling: Unl
Heat Index: 42°   Visibility: 10mi
Dew Point: 40°   Wind: 3mph
Humidity: 92%   Direction: 20°NNE
Pressure: 30.24"   Gusts: NA
Location:  35.66°N, 120.38°W
Report Text: KPRB 281153Z AUTO 02003KT 10SM CLR 06/04 A3024 RMK AO2 SLP238 70002 T00560044 10100 20056 50002 TSNO
Loading
Personal Weather Stations






























Interactive Weather Map New forecast layout! Learn more

10-Day Weather Forecast

Advertisements
Track Severe Weather on mobile